createdAt,value
2018-03-26T00:00:22.658Z,81.94
2018-03-26T00:01:24.416Z,82.36
2018-03-26T00:02:22.612Z,82.65
2018-03-26T00:03:22.580Z,82.51
2018-03-26T00:04:22.568Z,82.08
2018-03-26T00:05:22.548Z,82.74
2018-03-26T00:06:22.534Z,82.65
2018-03-26T00:07:22.505Z,82.79
2018-03-26T00:08:22.519Z,82.98
2018-03-26T00:09:22.452Z,82.60
2018-03-26T00:10:22.439Z,82.79
2018-03-26T00:11:22.421Z,82.79
2018-03-26T00:12:22.391Z,82.70
2018-03-26T00:13:22.376Z,82.32
2018-03-26T00:14:22.370Z,82.79
2018-03-26T00:15:22.328Z,82.42
2018-03-26T00:16:22.334Z,82.89
2018-03-26T00:17:22.295Z,82.89
2018-03-26T00:18:22.269Z,82.89
2018-03-26T00:19:22.246Z,82.70
2018-03-26T00:20:22.221Z,82.98
2018-03-26T00:21:22.216Z,82.89
2018-03-26T00:22:22.198Z,82.70
2018-03-26T00:23:22.167Z,82.51
2018-03-26T00:24:22.158Z,82.98
2018-03-26T00:25:22.116Z,82.70
2018-03-26T00:26:22.102Z,82.51
2018-03-26T00:27:22.070Z,83.27
2018-03-26T00:28:23.915Z,82.79
2018-03-26T00:29:22.032Z,82.51
2018-03-26T00:30:22.011Z,83.27
2018-03-26T00:31:21.992Z,83.08
2018-03-26T00:32:21.998Z,83.17
2018-03-26T00:33:21.957Z,82.89
2018-03-26T00:34:21.927Z,82.79
2018-03-26T00:35:21.909Z,82.42
2018-03-26T00:36:21.887Z,82.79
2018-03-26T00:37:21.881Z,82.89
2018-03-26T00:38:21.870Z,83.17
2018-03-26T00:39:21.828Z,83.46
2018-03-26T00:40:21.795Z,83.36
2018-03-26T00:41:21.774Z,83.17
2018-03-26T00:42:21.763Z,83.27
2018-03-26T00:43:21.753Z,83.17
2018-03-26T00:44:21.708Z,83.08
2018-03-26T00:45:21.682Z,83.27
2018-03-26T00:46:21.666Z,82.98
2018-03-26T00:47:21.667Z,83.17
2018-03-26T00:48:21.630Z,82.98
2018-03-26T00:49:21.594Z,82.70
2018-03-26T00:50:21.588Z,83.08
2018-03-26T00:51:21.562Z,82.98
2018-03-26T00:52:21.544Z,83.55
2018-03-26T00:53:21.516Z,83.55
2018-03-26T00:54:21.492Z,83.74
2018-03-26T00:55:21.484Z,83.65
2018-03-26T00:56:21.446Z,83.84
2018-03-26T00:57:21.419Z,84.03
2018-03-26T00:58:21.442Z,83.36
2018-03-26T00:59:21.399Z,83.46
2018-03-26T01:00:21.369Z,83.08
2018-03-26T01:01:21.348Z,83.36
2018-03-26T01:02:21.327Z,83.17
2018-03-26T01:03:21.303Z,83.36
2018-03-26T01:04:21.286Z,83.08
2018-03-26T01:05:21.257Z,83.27
2018-03-26T01:06:21.243Z,83.46
2018-03-26T01:07:21.212Z,83.94
2018-03-26T01:08:21.214Z,83.84
2018-03-26T01:09:21.173Z,84.22
2018-03-26T01:10:21.185Z,83.55
2018-03-26T01:11:21.136Z,83.74
2018-03-26T01:12:21.109Z,83.84
2018-03-26T01:13:21.101Z,84.12
2018-03-26T01:14:21.072Z,83.74
2018-03-26T01:15:21.070Z,83.74
2018-03-26T01:16:21.030Z,84.50
2018-03-26T01:17:21.020Z,84.41
2018-03-26T01:18:21.000Z,84.41
2018-03-26T01:19:21.004Z,84.22
2018-03-26T01:20:20.967Z,84.74
2018-03-26T01:21:20.912Z,84.65
2018-03-26T01:22:20.921Z,84.55
2018-03-26T01:23:20.893Z,84.55
2018-03-26T01:24:20.858Z,84.17
2018-03-26T01:25:20.841Z,84.46
2018-03-26T01:26:20.826Z,84.27
2018-03-26T01:27:20.802Z,84.55
2018-03-26T01:28:20.764Z,84.55
2018-03-26T01:29:20.766Z,84.55
2018-03-26T01:30:20.720Z,84.46
2018-03-26T01:31:20.715Z,84.46
2018-03-26T01:32:20.709Z,84.46
2018-03-26T01:33:20.662Z,84.46
2018-03-26T01:34:20.636Z,84.74
2018-03-26T01:35:20.612Z,84.84
2018-03-26T01:36:20.611Z,85.22
2018-03-26T01:37:20.564Z,85.22
2018-03-26T01:38:20.562Z,84.84
2018-03-26T01:39:20.532Z,85.13
2018-03-26T01:40:20.527Z,85.41
2018-03-26T01:41:20.487Z,85.41
2018-03-26T01:42:20.490Z,85.13
2018-03-26T01:43:20.484Z,85.31
2018-03-26T01:44:20.418Z,85.50
2018-03-26T01:45:20.392Z,85.69
2018-03-26T01:46:20.394Z,85.78
2018-03-26T01:47:20.355Z,85.69
2018-03-26T01:48:20.357Z,85.78
2018-03-26T01:49:20.332Z,85.97
2018-03-26T01:50:20.296Z,85.97
2018-03-26T01:51:20.262Z,85.74
2018-03-26T01:52:20.254Z,86.31
2018-03-26T01:53:20.224Z,86.22
2018-03-26T01:54:20.244Z,86.03
2018-03-26T01:55:20.172Z,85.93
2018-03-26T01:56:20.151Z,85.93
2018-03-26T01:57:20.154Z,86.12
2018-03-26T01:58:20.133Z,85.84
2018-03-26T01:59:20.092Z,86.22
2018-03-26T02:00:20.067Z,86.79
2018-03-26T02:01:20.043Z,86.88
2018-03-26T02:02:20.028Z,86.69
2018-03-26T02:03:20.009Z,86.69
2018-03-26T02:04:19.986Z,86.50
2018-03-26T02:05:19.950Z,86.88
2018-03-26T02:06:19.988Z,87.07
2018-03-26T02:07:19.955Z,86.88
2018-03-26T02:08:19.920Z,86.88
2018-03-26T02:09:19.901Z,87.07
2018-03-26T02:10:19.851Z,86.69
2018-03-26T02:11:19.826Z,86.79
2018-03-26T02:12:19.827Z,87.16
2018-03-26T02:13:19.787Z,86.69
2018-03-26T02:14:19.761Z,86.60
2018-03-26T02:15:19.758Z,87.16
2018-03-26T02:16:19.722Z,86.88
2018-03-26T02:17:19.696Z,87.35
2018-03-26T02:18:19.713Z,87.64
2018-03-26T02:19:19.653Z,87.83
2018-03-26T02:20:19.621Z,87.83
2018-03-26T02:21:19.606Z,87.64
2018-03-26T02:22:19.612Z,87.64
2018-03-26T02:23:19.572Z,87.83
2018-03-26T02:24:19.533Z,87.83
2018-03-26T02:25:19.537Z,88.02
2018-03-26T02:26:19.504Z,87.83
2018-03-26T02:27:19.478Z,87.83
2018-03-26T02:28:19.522Z,87.26
2018-03-26T02:29:19.428Z,87.92
2018-03-26T02:30:19.412Z,87.64
2018-03-26T02:31:19.408Z,87.54
2018-03-26T02:32:19.393Z,87.54
2018-03-26T02:33:19.337Z,87.73
2018-03-26T02:34:19.327Z,88.17
2018-03-26T02:35:19.299Z,88.17
2018-03-26T02:36:19.284Z,88.73
2018-03-26T02:37:19.263Z,88.64
2018-03-26T02:38:19.214Z,89.30
2018-03-26T02:39:19.200Z,88.92
2018-03-26T02:40:19.184Z,88.64
2018-03-26T02:41:19.160Z,88.73
2018-03-26T02:42:19.139Z,89.11
2018-03-26T02:43:19.134Z,88.73
2018-03-26T02:44:19.112Z,89.20
2018-03-26T02:45:19.069Z,89.39
2018-03-26T02:46:19.061Z,89.25
2018-03-26T02:47:19.038Z,89.44
2018-03-26T02:48:19.010Z,89.54
2018-03-26T02:49:18.990Z,89.82
2018-03-26T02:50:18.978Z,89.82
2018-03-26T02:51:18.961Z,90.01
2018-03-26T02:52:18.910Z,90.39
2018-03-26T02:53:18.885Z,90.39
2018-03-26T02:54:18.869Z,90.30
2018-03-26T02:55:18.837Z,90.39
2018-03-26T02:56:18.828Z,90.96
2018-03-26T02:57:18.824Z,90.86
2018-03-26T02:58:18.795Z,90.96
2018-03-26T02:59:18.797Z,91.15
2018-03-26T03:00:18.730Z,90.96
2018-03-26T03:01:18.721Z,90.96
2018-03-26T03:02:18.683Z,91.05
2018-03-26T03:03:18.656Z,91.01
2018-03-26T03:04:18.655Z,91.29
2018-03-26T03:05:18.618Z,91.01
2018-03-26T03:06:18.618Z,91.39
2018-03-26T03:07:18.570Z,91.58
2018-03-26T03:08:18.556Z,91.39
2018-03-26T03:09:18.522Z,92.14
2018-03-26T03:10:18.497Z,91.96
2018-03-26T03:11:18.488Z,91.86
2018-03-26T03:12:18.471Z,92.33
2018-03-26T03:13:18.460Z,92.33
2018-03-26T03:14:18.416Z,92.71
2018-03-26T03:15:18.394Z,92.71
2018-03-26T03:16:18.364Z,92.71
2018-03-26T03:17:18.349Z,93.18
2018-03-26T03:18:18.339Z,92.90
2018-03-26T03:19:18.346Z,92.99
2018-03-26T03:20:18.270Z,92.71
2018-03-26T03:21:18.256Z,92.71
2018-03-26T03:22:18.236Z,92.80
2018-03-26T03:23:18.201Z,92.80
2018-03-26T03:24:18.180Z,92.71
2018-03-26T03:25:18.176Z,92.80
2018-03-26T03:26:18.125Z,92.94
2018-03-26T03:27:18.113Z,92.71
2018-03-26T03:28:18.120Z,92.76
2018-03-26T03:29:18.062Z,93.42
2018-03-26T03:30:18.049Z,93.70
2018-03-26T03:31:18.015Z,93.89
2018-03-26T03:32:18.002Z,93.32
2018-03-26T03:33:17.958Z,92.76
2018-03-26T03:34:17.941Z,92.94
2018-03-26T03:35:17.941Z,93.51
2018-03-26T03:36:17.897Z,93.80
2018-03-26T03:37:17.878Z,93.80
2018-03-26T03:38:17.862Z,93.99
2018-03-26T03:39:17.840Z,93.70
2018-03-26T03:40:17.815Z,94.65
2018-03-26T03:41:17.780Z,94.46
2018-03-26T03:42:17.762Z,94.37
2018-03-26T03:43:17.735Z,94.56
2018-03-26T03:44:17.713Z,94.74
2018-03-26T03:45:17.709Z,94.27
2018-03-26T03:46:17.662Z,94.37
2018-03-26T03:47:17.648Z,94.65
2018-03-26T03:48:17.614Z,95.03
2018-03-26T03:49:17.622Z,94.37
2018-03-26T03:50:17.564Z,94.93
2018-03-26T03:51:17.570Z,94.37
2018-03-26T03:52:17.589Z,94.37
2018-03-26T03:53:17.500Z,94.27
2018-03-26T03:54:17.488Z,94.74
2018-03-26T03:55:17.543Z,95.03
2018-03-26T03:56:17.463Z,95.21
2018-03-26T03:57:17.427Z,95.59
2018-03-26T03:58:17.376Z,95.40
2018-03-26T03:59:17.348Z,95.21
2018-03-26T04:00:17.402Z,94.74
2018-03-26T04:01:17.684Z,94.74
2018-03-26T04:02:17.292Z,94.46
2018-03-26T04:03:17.271Z,94.74
2018-03-26T04:04:17.234Z,95.21
2018-03-26T04:05:17.224Z,95.31
2018-03-26T04:06:17.194Z,95.69
2018-03-26T04:07:17.170Z,95.59
2018-03-26T04:08:17.166Z,95.40
2018-03-26T04:09:17.132Z,95.40
2018-03-26T04:10:17.103Z,95.50
2018-03-26T04:11:17.068Z,95.97
2018-03-26T04:12:17.096Z,95.97
2018-03-26T04:13:17.057Z,95.88
2018-03-26T04:14:17.002Z,95.97
2018-03-26T04:15:17.027Z,95.97
2018-03-26T04:16:16.955Z,96.26
2018-03-26T04:17:16.945Z,96.45
2018-03-26T04:18:16.944Z,96.16
2018-03-26T04:19:16.946Z,96.45
2018-03-26T04:20:16.870Z,95.97
2018-03-26T04:21:16.857Z,95.59
2018-03-26T04:22:16.841Z,95.59
2018-03-26T04:23:16.788Z,95.50
2018-03-26T04:24:16.786Z,95.50
2018-03-26T04:25:16.750Z,95.31
2018-03-26T04:26:16.731Z,95.12
2018-03-26T04:27:16.732Z,94.65
2018-03-26T04:28:16.674Z,94.18
2018-03-26T04:29:16.665Z,94.98
2018-03-26T04:30:16.627Z,93.94
2018-03-26T04:31:16.626Z,94.79
2018-03-26T04:32:16.575Z,94.60
2018-03-26T04:33:16.550Z,94.60
2018-03-26T04:34:16.560Z,94.42
2018-03-26T04:35:16.522Z,94.42
2018-03-26T04:36:16.489Z,94.32
2018-03-26T04:37:16.471Z,94.60
2018-03-26T04:38:17.513Z,94.42
2018-03-26T04:39:16.416Z,94.42
2018-03-26T04:40:16.404Z,93.85
2018-03-26T04:41:16.386Z,93.85
2018-03-26T04:42:16.345Z,94.04
2018-03-26T04:43:16.317Z,93.75
2018-03-26T04:44:16.301Z,93.66
2018-03-26T04:45:16.280Z,93.75
2018-03-26T04:46:16.260Z,93.47
2018-03-26T04:47:16.245Z,93.47
2018-03-26T04:48:16.196Z,92.90
2018-03-26T04:49:16.181Z,93.37
2018-03-26T04:50:17.975Z,92.61
2018-03-26T04:51:16.116Z,92.71
2018-03-26T04:52:16.111Z,92.80
2018-03-26T04:53:16.109Z,93.18
2018-03-26T04:54:16.056Z,92.99
2018-03-26T04:55:16.046Z,93.09
2018-03-26T04:56:16.003Z,93.18
2018-03-26T04:57:15.998Z,93.18
2018-03-26T04:58:15.963Z,93.18
2018-03-26T04:59:15.979Z,93.47
2018-03-26T05:00:15.916Z,92.61
2018-03-26T05:01:15.919Z,92.90
2018-03-26T05:02:15.927Z,92.80
2018-03-26T05:03:15.848Z,92.66
2018-03-26T05:04:15.849Z,92.66
2018-03-26T05:05:15.806Z,92.19
2018-03-26T05:06:15.765Z,92.47
2018-03-26T05:07:15.749Z,91.91
2018-03-26T05:08:15.732Z,91.91
2018-03-26T05:09:15.710Z,91.91
2018-03-26T05:10:15.684Z,92.10
2018-03-26T05:11:15.663Z,91.81
2018-03-26T05:12:15.639Z,92.00
2018-03-26T05:13:15.612Z,91.81
2018-03-26T05:14:15.603Z,91.34
2018-03-26T05:15:15.611Z,91.34
2018-03-26T05:16:15.559Z,91.43
2018-03-26T05:17:15.524Z,91.91
2018-03-26T05:18:16.324Z,91.53
2018-03-26T05:19:15.480Z,91.15
2018-03-26T05:20:15.462Z,91.15
2018-03-26T05:21:15.439Z,91.34
2018-03-26T05:22:15.418Z,91.43
2018-03-26T05:23:15.382Z,91.34
2018-03-26T05:24:15.392Z,91.24
2018-03-26T05:25:15.338Z,90.77
2018-03-26T05:26:15.321Z,90.58
2018-03-26T05:27:15.305Z,90.77
2018-03-26T05:28:15.266Z,90.77
2018-03-26T05:29:15.286Z,90.58
2018-03-26T05:30:15.238Z,90.48
2018-03-26T05:31:15.215Z,90.77
2018-03-26T05:32:15.180Z,90.58
2018-03-26T05:33:15.166Z,90.77
2018-03-26T05:34:15.127Z,90.48
2018-03-26T05:35:15.102Z,90.77
2018-03-26T05:36:15.088Z,90.77
2018-03-26T05:37:15.082Z,90.96
2018-03-26T05:38:15.048Z,90.39
2018-03-26T05:39:15.028Z,90.39
2018-03-26T05:40:15.007Z,90.39
2018-03-26T05:41:14.974Z,90.20
2018-03-26T05:42:14.943Z,90.67
2018-03-26T05:43:14.934Z,90.48
2018-03-26T05:44:14.893Z,90.01
2018-03-26T05:45:14.916Z,90.39
2018-03-26T05:46:14.877Z,90.30
2018-03-26T05:47:14.841Z,89.54
2018-03-26T05:48:14.835Z,89.82
2018-03-26T05:49:14.793Z,89.73
2018-03-26T05:50:14.772Z,89.92
2018-03-26T05:51:14.751Z,90.01
2018-03-26T05:52:14.778Z,90.53
2018-03-26T05:53:14.693Z,89.92
2018-03-26T05:54:14.674Z,90.15
2018-03-26T05:55:14.680Z,90.06
2018-03-26T05:56:14.624Z,89.73
2018-03-26T05:57:14.631Z,90.25
2018-03-26T05:58:14.589Z,89.87
2018-03-26T05:59:14.581Z,89.77
2018-03-26T06:00:14.563Z,89.68
2018-03-26T06:01:14.515Z,90.15
2018-03-26T06:02:14.508Z,89.77
2018-03-26T06:03:14.477Z,90.06
2018-03-26T06:04:14.482Z,90.06
2018-03-26T06:05:14.450Z,89.77
2018-03-26T06:06:14.426Z,89.87
2018-03-26T06:07:14.396Z,89.49
2018-03-26T06:08:14.362Z,89.77
2018-03-26T06:09:15.392Z,89.39
2018-03-26T06:10:14.319Z,89.20
2018-03-26T06:11:14.280Z,89.11
2018-03-26T06:12:14.261Z,89.39
2018-03-26T06:13:14.277Z,88.92
2018-03-26T06:14:14.215Z,89.58
2018-03-26T06:15:14.196Z,89.39
2018-03-26T06:16:14.174Z,89.01
2018-03-26T06:17:14.158Z,88.82
2018-03-26T06:18:14.144Z,88.92
2018-03-26T06:19:14.125Z,88.92
2018-03-26T06:20:14.102Z,88.73
2018-03-26T06:21:14.079Z,88.82
2018-03-26T06:22:14.072Z,89.30
2018-03-26T06:23:14.051Z,89.20
2018-03-26T06:24:14.036Z,89.20
2018-03-26T06:25:13.985Z,89.30
2018-03-26T06:26:13.959Z,88.92
2018-03-26T06:27:13.930Z,88.64
2018-03-26T06:28:13.900Z,89.39
2018-03-26T06:29:13.891Z,88.54
2018-03-26T06:30:13.867Z,88.73
2018-03-26T06:31:13.861Z,88.82
2018-03-26T06:32:13.821Z,88.92
2018-03-26T06:33:13.791Z,89.20
2018-03-26T06:34:13.764Z,88.45
2018-03-26T06:35:13.742Z,88.45
2018-03-26T06:36:13.757Z,88.73
2018-03-26T06:37:13.713Z,88.73
2018-03-26T06:38:13.695Z,88.54
2018-03-26T06:39:13.687Z,88.30
2018-03-26T06:40:13.652Z,88.68
2018-03-26T06:41:13.652Z,88.68
2018-03-26T06:42:13.599Z,89.15
2018-03-26T06:43:13.575Z,88.87
2018-03-26T06:44:13.576Z,88.78
2018-03-26T06:45:13.519Z,89.25
2018-03-26T06:46:13.496Z,89.39
2018-03-26T06:47:13.584Z,88.78
2018-03-26T06:48:13.460Z,88.78
2018-03-26T06:49:13.440Z,88.59
2018-03-26T06:50:13.410Z,88.40
2018-03-26T06:51:13.372Z,88.21
2018-03-26T06:52:13.359Z,88.02
2018-03-26T06:53:13.324Z,88.02
2018-03-26T06:54:13.313Z,88.11
2018-03-26T06:55:13.313Z,88.02
2018-03-26T06:56:13.299Z,87.35
2018-03-26T06:57:13.276Z,87.92
2018-03-26T06:58:13.206Z,87.64
2018-03-26T06:59:13.240Z,87.54
2018-03-26T07:00:13.204Z,87.64
2018-03-26T07:01:13.162Z,87.54
2018-03-26T07:02:13.120Z,87.83
2018-03-26T07:03:13.180Z,87.07
2018-03-26T07:04:13.083Z,87.16
2018-03-26T07:05:13.085Z,87.35
2018-03-26T07:06:13.047Z,87.26
2018-03-26T07:07:13.067Z,87.26
2018-03-26T07:08:13.032Z,87.35
2018-03-26T07:09:12.980Z,87.35
2018-03-26T07:10:12.958Z,86.79
2018-03-26T07:11:12.929Z,87.26
2018-03-26T07:12:12.905Z,86.69
2018-03-26T07:13:12.902Z,86.60
2018-03-26T07:14:12.866Z,86.12
2018-03-26T07:15:12.849Z,85.84
2018-03-26T07:16:12.913Z,85.65
2018-03-26T07:17:12.802Z,84.99
2018-03-26T07:18:12.772Z,84.99
2018-03-26T07:19:12.768Z,85.46
2018-03-26T07:20:12.740Z,85.65
2018-03-26T07:21:12.754Z,84.99
2018-03-26T07:22:12.684Z,85.36
2018-03-26T07:23:12.709Z,85.46
2018-03-26T07:24:12.644Z,85.17
2018-03-26T07:25:12.603Z,85.27
2018-03-26T07:26:12.594Z,84.99
2018-03-26T07:27:12.592Z,84.89
2018-03-26T07:28:12.538Z,85.17
2018-03-26T07:29:12.547Z,85.41
2018-03-26T07:30:12.516Z,85.65
2018-03-26T07:31:12.481Z,85.93
2018-03-26T07:32:12.474Z,85.65
2018-03-26T07:33:12.438Z,85.50
2018-03-26T07:34:12.399Z,85.27
2018-03-26T07:35:12.405Z,85.36
2018-03-26T07:36:12.398Z,85.55
2018-03-26T07:37:12.343Z,85.13
2018-03-26T07:38:12.340Z,85.31
2018-03-26T07:39:12.297Z,85.41
2018-03-26T07:40:12.310Z,85.31
2018-03-26T07:41:12.301Z,84.84
2018-03-26T07:42:12.245Z,84.74
2018-03-26T07:43:12.237Z,85.03
2018-03-26T07:44:12.180Z,85.03
2018-03-26T07:45:12.177Z,84.84
2018-03-26T07:46:12.151Z,84.94
2018-03-26T07:47:12.150Z,85.03
2018-03-26T07:48:12.143Z,85.41
2018-03-26T07:49:12.106Z,84.94
2018-03-26T07:50:12.104Z,84.74
2018-03-26T07:51:12.038Z,85.13
2018-03-26T07:52:12.024Z,84.94
2018-03-26T07:53:11.992Z,85.13
2018-03-26T07:54:12.000Z,85.03
2018-03-26T07:55:11.971Z,85.13
2018-03-26T07:56:11.960Z,84.94
2018-03-26T07:57:11.899Z,84.36
2018-03-26T07:58:11.881Z,84.27
2018-03-26T07:59:11.849Z,84.08
2018-03-26T08:00:13.505Z,84.08
2018-03-26T08:01:11.820Z,84.17
2018-03-26T08:02:11.786Z,83.98
2018-03-26T08:03:11.765Z,84.08
2018-03-26T08:04:11.770Z,83.42
2018-03-26T08:05:11.757Z,83.23
2018-03-26T08:06:11.698Z,83.13
2018-03-26T08:07:11.696Z,82.66
2018-03-26T08:08:11.650Z,82.75
2018-03-26T08:09:11.648Z,82.75
2018-03-26T08:10:13.525Z,82.28
2018-03-26T08:11:11.604Z,81.71
2018-03-26T08:12:11.616Z,82.18
2018-03-26T08:13:11.599Z,81.52
2018-03-26T08:14:11.523Z,81.52
2018-03-26T08:15:11.503Z,81.43
2018-03-26T08:16:11.486Z,81.62
2018-03-26T08:17:11.525Z,81.52
2018-03-26T08:18:11.476Z,81.62
2018-03-26T08:19:11.414Z,82.09
2018-03-26T08:20:11.447Z,82.09
2018-03-26T08:21:11.360Z,82.28
2018-03-26T08:22:11.380Z,82.09
2018-03-26T08:23:11.354Z,81.99
2018-03-26T08:24:11.306Z,81.62
2018-03-26T08:25:11.331Z,81.24
2018-03-26T08:26:11.268Z,81.71
2018-03-26T08:27:11.257Z,81.90
2018-03-26T08:28:11.217Z,81.90
2018-03-26T08:29:11.212Z,81.71
2018-03-26T08:30:11.221Z,81.43
2018-03-26T08:31:11.204Z,81.14
2018-03-26T08:32:11.149Z,81.14
2018-03-26T08:33:11.117Z,80.95
2018-03-26T08:34:11.136Z,81.05
2018-03-26T08:35:12.144Z,81.14
2018-03-26T08:36:11.036Z,81.56
2018-03-26T08:37:11.027Z,81.75
2018-03-26T08:38:11.042Z,81.85
2018-03-26T08:39:10.969Z,81.56
2018-03-26T08:40:10.962Z,81.56
2018-03-26T08:41:10.968Z,81.37
2018-03-26T08:42:10.979Z,80.71
2018-03-26T08:43:10.890Z,80.80
2018-03-26T08:44:10.878Z,81.18
2018-03-26T08:45:10.886Z,80.71
2018-03-26T08:46:10.910Z,80.90
2018-03-26T08:47:10.799Z,81.47
2018-03-26T08:48:10.782Z,80.99
2018-03-26T08:49:10.780Z,80.90
2018-03-26T08:50:10.912Z,80.33
2018-03-26T08:51:10.747Z,80.43
2018-03-26T08:52:10.732Z,80.52
2018-03-26T08:53:10.668Z,80.04
2018-03-26T08:54:10.649Z,79.47
2018-03-26T08:55:10.663Z,79.38
2018-03-26T08:56:10.604Z,79.28
2018-03-26T08:57:10.582Z,79.19
2018-03-26T08:58:10.571Z,79.10
2018-03-26T08:59:10.559Z,79.10
2018-03-26T09:00:10.552Z,79.10
2018-03-26T09:01:10.502Z,79.47
2018-03-26T09:02:10.505Z,79.85
2018-03-26T09:03:10.473Z,79.57
2018-03-26T09:04:10.423Z,79.76
2018-03-26T09:05:10.415Z,79.28
2018-03-26T09:06:10.404Z,79.28
2018-03-26T09:07:10.370Z,78.85
2018-03-26T09:08:10.356Z,79.33
2018-03-26T09:09:10.336Z,79.14
2018-03-26T09:10:10.302Z,79.33
2018-03-26T09:11:10.315Z,79.04
2018-03-26T09:12:10.261Z,79.14
2018-03-26T09:13:10.280Z,78.95
2018-03-26T09:14:10.202Z,78.95
2018-03-26T09:15:10.198Z,78.56
2018-03-26T09:16:10.196Z,78.09
2018-03-26T09:17:10.166Z,77.71
2018-03-26T09:18:10.171Z,77.62
2018-03-26T09:19:10.133Z,77.81
2018-03-26T09:20:10.113Z,77.71
2018-03-26T09:21:10.080Z,77.71
2018-03-26T09:22:10.063Z,78.00
2018-03-26T09:23:10.021Z,77.71
2018-03-26T09:24:10.019Z,77.90
2018-03-26T09:25:09.972Z,78.00
2018-03-26T09:26:09.942Z,77.81
2018-03-26T09:27:09.985Z,77.24
2018-03-26T09:28:09.943Z,76.76
2018-03-26T09:29:09.913Z,77.05
2018-03-26T09:30:09.867Z,77.52
2018-03-26T09:31:09.848Z,77.43
2018-03-26T09:32:09.831Z,77.52
2018-03-26T09:33:09.808Z,77.71
2018-03-26T09:34:09.789Z,77.14
2018-03-26T09:35:09.769Z,76.86
2018-03-26T09:36:09.752Z,76.95
2018-03-26T09:37:09.719Z,76.57
2018-03-26T09:38:09.814Z,76.48
2018-03-26T09:39:09.691Z,76.20
2018-03-26T09:40:09.667Z,76.48
2018-03-26T09:41:09.681Z,76.29
2018-03-26T09:42:09.645Z,76.29
2018-03-26T09:43:09.587Z,76.67
2018-03-26T09:44:09.574Z,76.39
2018-03-26T09:45:09.578Z,76.39
2018-03-26T09:46:09.558Z,77.14
2018-03-26T09:47:09.504Z,76.86
2018-03-26T09:48:09.477Z,76.95
2018-03-26T09:49:09.484Z,77.14
2018-03-26T09:50:09.448Z,76.61
2018-03-26T09:51:09.430Z,76.23
2018-03-26T09:52:09.411Z,76.29
2018-03-26T09:53:09.444Z,76.04
2018-03-26T09:54:09.356Z,75.95
2018-03-26T09:55:09.323Z,75.85
2018-03-26T09:56:09.330Z,76.04
2018-03-26T09:57:09.292Z,76.14
2018-03-26T09:58:09.281Z,75.85
2018-03-26T09:59:09.248Z,75.95
2018-03-26T10:00:09.270Z,75.76
2018-03-26T10:01:09.216Z,75.57
2018-03-26T10:02:09.213Z,75.19
2018-03-26T10:03:09.185Z,75.00
2018-03-26T10:04:09.156Z,75.00
2018-03-26T10:05:09.210Z,74.56
2018-03-26T10:06:09.116Z,74.27
2018-03-26T10:07:09.079Z,74.08
2018-03-26T10:08:09.071Z,74.27
2018-03-26T10:09:09.558Z,73.80
2018-03-26T10:10:09.101Z,73.99
2018-03-26T10:11:09.036Z,73.71
2018-03-26T10:12:08.977Z,73.90
2018-03-26T10:13:08.960Z,73.33
2018-03-26T10:14:10.592Z,72.47
2018-03-26T10:15:08.915Z,73.14
2018-03-26T10:16:08.896Z,72.47
2018-03-26T10:17:08.872Z,72.51
2018-03-26T10:18:08.853Z,72.32
2018-03-26T10:19:08.820Z,71.94
2018-03-26T10:20:08.820Z,71.08
2018-03-26T10:21:10.558Z,71.08
2018-03-26T10:22:08.773Z,70.99
2018-03-26T10:23:08.796Z,70.99
2018-03-26T10:24:08.720Z,70.42
2018-03-26T10:25:08.697Z,70.13
2018-03-26T10:26:08.685Z,69.46
2018-03-26T10:27:08.666Z,69.88
2018-03-26T10:28:08.651Z,69.41
2018-03-26T10:29:08.618Z,69.21
2018-03-26T10:30:08.594Z,68.46
2018-03-26T10:31:08.597Z,68.17
2018-03-26T10:32:08.559Z,68.36
2018-03-26T10:33:08.572Z,67.60
2018-03-26T10:34:08.518Z,67.69
2018-03-26T10:35:08.525Z,68.01
2018-03-26T10:36:08.494Z,66.97
2018-03-26T10:37:08.480Z,66.78
2018-03-26T10:38:08.466Z,67.38
2018-03-26T10:39:08.437Z,67.38
2018-03-26T10:40:08.406Z,66.72
2018-03-26T10:41:08.395Z,66.08
2018-03-26T10:42:08.364Z,65.13
2018-03-26T10:43:08.344Z,64.02
2018-03-26T10:44:08.320Z,63.26
2018-03-26T10:45:08.303Z,62.43
2018-03-26T10:46:08.284Z,60.65
2018-03-26T10:47:08.408Z,58.94
2018-03-26T10:48:08.260Z,58.07
2018-03-26T10:49:08.230Z,57.12
2018-03-26T10:50:08.217Z,56.17
2018-03-26T10:51:08.211Z,56.36
2018-03-26T10:52:08.193Z,56.17
2018-03-26T10:53:08.157Z,56.36
2018-03-26T10:54:08.129Z,55.53
2018-03-26T10:55:08.128Z,55.43
2018-03-26T10:56:08.116Z,54.96
2018-03-26T10:57:08.111Z,54.60
2018-03-26T10:58:08.087Z,54.06
2018-03-26T10:59:08.050Z,53.70
2018-03-26T11:00:08.040Z,52.26
2018-03-26T11:01:08.034Z,50.84
2018-03-26T11:02:07.976Z,49.88
2018-03-26T11:03:07.968Z,50.09
2018-03-26T11:04:07.979Z,49.35
2018-03-26T11:05:07.928Z,49.26
2018-03-26T11:06:07.929Z,48.23
2018-03-26T11:07:07.913Z,46.70
2018-03-26T11:08:08.019Z,45.74
2018-03-26T11:09:07.881Z,45.09
2018-03-26T11:10:07.843Z,43.85
2018-03-26T11:11:07.871Z,44.43
2018-03-26T11:12:07.839Z,45.09
2018-03-26T11:13:07.823Z,45.29
2018-03-26T11:14:07.783Z,44.35
2018-03-26T11:15:07.764Z,43.91
2018-03-26T11:16:07.752Z,41.94
2018-03-26T11:17:07.742Z,39.31
2018-03-26T11:18:07.802Z,36.85
2018-03-26T11:19:07.713Z,34.77
2018-03-26T11:20:07.700Z,32.76
2018-03-26T11:21:07.702Z,32.15
2018-03-26T11:22:07.649Z,32.70
2018-03-26T11:23:07.665Z,34.61
2018-03-26T11:24:07.626Z,36.40
2018-03-26T11:25:07.608Z,38.10
2018-03-26T11:26:07.596Z,38.95
2018-03-26T11:27:07.588Z,40.25
2018-03-26T11:28:07.622Z,41.28
2018-03-26T11:29:07.571Z,41.09
2018-03-26T11:30:07.521Z,41.07
2018-03-26T11:31:07.521Z,42.01
2018-03-26T11:32:07.521Z,43.06
2018-03-26T11:33:07.484Z,44.09
2018-03-26T11:34:07.482Z,44.38
2018-03-26T11:35:07.469Z,45.15
2018-03-26T11:36:09.067Z,44.86
2018-03-26T11:37:07.422Z,44.26
2018-03-26T11:38:07.431Z,45.31
2018-03-26T11:39:07.420Z,45.01
2018-03-26T11:40:07.390Z,45.48
2018-03-26T11:41:07.381Z,46.22
2018-03-26T11:42:07.388Z,46.61
2018-03-26T11:43:07.337Z,47.75
2018-03-26T11:44:07.327Z,48.42
2018-03-26T11:45:07.305Z,48.71
2018-03-26T11:46:08.334Z,48.42
2018-03-26T11:47:07.279Z,48.23
2018-03-26T11:48:07.263Z,48.13
2018-03-26T11:49:07.235Z,47.47
2018-03-26T11:50:07.221Z,47.66
2018-03-26T11:51:07.250Z,47.75
2018-03-26T11:52:07.220Z,47.08
2018-03-26T11:53:07.194Z,48.04
2018-03-26T11:54:07.191Z,48.52
2018-03-26T11:55:07.207Z,48.78
2018-03-26T11:56:07.150Z,48.49
2018-03-26T11:57:07.130Z,48.94
2018-03-26T11:58:07.110Z,49.52
2018-03-26T11:59:08.220Z,49.80
2018-03-26T12:00:07.059Z,50.92
2018-03-26T12:01:07.049Z,51.59
2018-03-26T12:02:07.050Z,52.26
2018-03-26T12:03:07.020Z,52.73
2018-03-26T12:04:06.994Z,52.92
2018-03-26T12:05:06.982Z,53.41
2018-03-26T12:06:06.960Z,53.76
2018-03-26T12:07:06.955Z,54.14
2018-03-26T12:08:06.927Z,54.52
2018-03-26T12:09:06.922Z,54.61
2018-03-26T12:10:06.897Z,54.90
2018-03-26T12:11:06.888Z,55.47
2018-03-26T12:12:06.852Z,55.28
2018-03-26T12:13:06.910Z,55.00
2018-03-26T12:14:06.828Z,55.07
2018-03-26T12:15:06.780Z,54.78
2018-03-26T12:16:06.820Z,55.26
2018-03-26T12:17:06.803Z,56.02
2018-03-26T12:18:06.766Z,56.14
2018-03-26T12:19:06.740Z,56.43
2018-03-26T12:20:06.737Z,55.76
2018-03-26T12:21:06.723Z,55.31
2018-03-26T12:22:06.662Z,55.15
2018-03-26T12:23:06.624Z,54.22
2018-03-26T12:24:06.618Z,52.46
2018-03-26T12:25:06.611Z,49.33
2018-03-26T12:26:06.643Z,46.87
2018-03-26T12:27:06.586Z,45.86
2018-03-26T12:28:06.579Z,44.45
2018-03-26T12:29:06.547Z,42.94
2018-03-26T12:30:06.523Z,41.60
2018-03-26T12:31:06.514Z,42.44
2018-03-26T12:32:06.518Z,43.37
2018-03-26T12:33:06.471Z,43.47
2018-03-26T12:34:06.446Z,43.73
2018-03-26T12:35:06.463Z,44.95
2018-03-26T12:36:06.394Z,46.08
2018-03-26T12:37:06.414Z,47.49
2018-03-26T12:38:06.383Z,48.16
2018-03-26T12:39:06.376Z,48.71
2018-03-26T12:40:06.358Z,50.12
2018-03-26T12:41:06.312Z,51.35
2018-03-26T12:42:06.363Z,51.71
2018-03-26T12:43:06.313Z,52.38
2018-03-26T12:44:06.324Z,52.86
2018-03-26T12:45:06.241Z,53.59
2018-03-26T12:46:06.259Z,54.26
2018-03-26T12:47:06.227Z,55.50
2018-03-26T12:48:06.209Z,55.76
2018-03-26T12:49:06.188Z,56.24
2018-03-26T12:50:06.160Z,56.14
2018-03-26T12:51:06.150Z,56.62
2018-03-26T12:52:06.159Z,56.43